Time;durP1;ratioP1;P1;durP2;ratioP2;P2;SDS_P1;SDS_P2;PMS_P1;PMS_P2;Temp;Humidity;BMP_temperature;BMP_pressure;BME280_temperature;BME280_humidity;BME280_pressure;Samples;Min_cycle;Max_cycle;Signal;HPM_P1;HPM_P2
2020/12/31 00:00:07;;;;;;;19.30;18.20;;;3.80;92.00;;;;;;5074050;28;20757;-78
2020/12/31 00:02:34;;;;;;;171.13;34.00;;;3.70;92.30;;;;;;5074113;28;20650;-77
2020/12/31 00:05:00;;;;;;;18.98;17.67;;;3.80;92.50;;;;;;5073890;28;20196;-77
2020/12/31 00:07:27;;;;;;;225.65;33.30;;;3.70;94.80;;;;;;5073691;28;20690;-77
2020/12/31 00:09:53;;;;;;;18.63;17.48;;;3.80;96.60;;;;;;5073484;28;20253;-77
2020/12/31 00:12:20;;;;;;;18.30;17.20;;;3.80;95.70;;;;;;5074488;28;20204;-77
2020/12/31 00:14:46;;;;;;;17.73;16.73;;;3.90;94.70;;;;;;5073685;28;20226;-77
2020/12/31 00:17:13;;;;;;;19.38;18.02;;;3.90;94.40;;;;;;5074217;28;20220;-77
2020/12/31 00:19:39;;;;;;;16.75;15.85;;;3.90;93.60;;;;;;5074529;28;20196;-77
2020/12/31 00:22:05;;;;;;;18.38;17.38;;;3.90;95.80;;;;;;5074278;28;20279;-77
2020/12/31 00:24:32;;;;;;;606.40;85.30;;;3.90;94.70;;;;;;5074366;28;20202;-78
2020/12/31 00:26:59;;;;;;;19.20;18.05;;;3.90;94.70;;;;;;5076188;28;20211;-78
2020/12/31 00:29:25;;;;;;;19.42;18.25;;;3.80;94.60;;;;;;5076276;28;20196;-77
2020/12/31 00:31:52;;;;;;;19.27;17.98;;;3.90;94.30;;;;;;5075573;28;20290;-77
2020/12/31 00:34:18;;;;;;;17.95;16.90;;;3.80;93.10;;;;;;5075047;28;20196;-78
2020/12/31 00:36:47;;;;;;;19.25;17.90;;;3.80;93.30;;;;;;5076711;28;20699;-79
2020/12/31 00:39:13;;;;;;;20.40;18.98;;;3.80;93.00;;;;;;5075021;28;20196;-76
2020/12/31 00:41:40;;;;;;;18.58;17.48;;;3.80;92.70;;;;;;5073832;28;20200;-76
2020/12/31 00:44:07;;;;;;;18.58;17.42;;;3.80;94.30;;;;;;5073003;28;20689;-76
2020/12/31 00:46:33;;;;;;;18.98;17.88;;;3.80;93.90;;;;;;5072911;28;20276;-77
2020/12/31 00:49:00;;;;;;;17.30;16.30;;;3.90;93.00;;;;;;5073495;28;20194;-76
2020/12/31 00:51:26;;;;;;;18.00;17.05;;;3.90;92.20;;;;;;5073659;28;20287;-77
2020/12/31 00:53:53;;;;;;;19.60;18.40;;;3.90;90.20;;;;;;5077570;28;20196;-77
2020/12/31 00:56:19;;;;;;;19.38;18.38;;;3.90;88.90;;;;;;5077024;28;20212;-77
2020/12/31 00:58:47;;;;;;;18.35;17.35;;;4.00;88.00;;;;;;5076747;28;20220;-77
2020/12/31 01:01:13;;;;;;;16.95;16.15;;;4.00;87.50;;;;;;5077593;28;20565;-77
2020/12/31 01:03:40;;;;;;;17.70;16.83;;;3.90;89.20;;;;;;5081817;28;20221;-77
2020/12/31 01:06:06;;;;;;;18.65;17.65;;;3.90;87.80;;;;;;5081837;28;20298;-77
2020/12/31 01:08:32;;;;;;;18.10;17.10;;;4.00;86.70;;;;;;5079038;28;20728;-77
2020/12/31 01:10:59;;;;;;;18.65;17.65;;;3.90;85.90;;;;;;5078166;28;20191;-78
2020/12/31 01:13:25;;;;;;;18.40;17.50;;;3.80;86.20;;;;;;5075959;28;20200;-78
2020/12/31 01:15:52;;;;;;;127.60;25.42;;;3.70;86.70;;;;;;5075316;28;20211;-78
2020/12/31 01:18:19;;;;;;;837.92;125.43;;;3.70;90.20;;;;;;5073482;28;20216;-76
2020/12/31 01:20:45;;;;;;;18.70;17.60;;;3.60;89.80;;;;;;5072560;28;20200;-76
2020/12/31 01:23:11;;;;;;;17.70;16.70;;;3.50;88.50;;;;;;5073470;28;20253;-76
2020/12/31 01:25:38;;;;;;;17.85;16.95;;;3.50;91.90;;;;;;5072233;28;20530;-77
2020/12/31 01:28:04;;;;;;;17.73;16.73;;;3.50;91.20;;;;;;5072599;28;20203;-77
2020/12/31 01:30:31;;;;;;;24.52;20.25;;;3.40;90.40;;;;;;5072176;28;20204;-77
2020/12/31 01:32:59;;;;;;;96.68;25.42;;;3.40;89.60;;;;;;5072738;28;20238;-77
2020/12/31 01:35:25;;;;;;;18.40;17.30;;;3.30;93.80;;;;;;5072433;28;20202;-77
2020/12/31 01:37:52;;;;;;;19.30;18.20;;;3.40;93.00;;;;;;5072415;28;20227;-76
2020/12/31 01:40:18;;;;;;;19.00;17.92;;;3.40;91.80;;;;;;5072092;28;20192;-76
2020/12/31 01:42:44;;;;;;;19.50;18.38;;;3.30;91.10;;;;;;5072309;28;20249;-76
2020/12/31 01:45:11;;;;;;;18.73;17.73;;;3.20;91.20;;;;;;5072049;28;20200;-77
2020/12/31 01:47:38;;;;;;;19.50;18.30;;;3.10;91.00;;;;;;5072368;28;20215;-76
2020/12/31 01:50:05;;;;;;;1999.90;343.80;;;3.20;90.70;;;;;;5072117;28;20204;-76
2020/12/31 01:52:32;;;;;;;124.22;25.98;;;3.30;91.30;;;;;;5071907;28;20681;-76
2020/12/31 01:55:00;;;;;;;20.00;18.80;;;3.10;93.40;;;;;;5072212;28;20230;-76
2020/12/31 01:57:27;;;;;;;19.10;18.00;;;3.20;92.10;;;;;;5071825;28;20330;-76
2020/12/31 01:59:54;;;;;;;20.45;18.55;;;3.20;91.30;;;;;;5071987;28;20196;-76
2020/12/31 02:02:20;;;;;;;19.38;18.27;;;3.30;92.30;;;;;;5072191;28;20211;-77
2020/12/31 02:04:49;;;;;;;20.00;18.50;;;3.20;92.50;;;;;;5072038;28;20192;-76
2020/12/31 02:07:17;;;;;;;20.48;18.67;;;3.20;91.50;;;;;;5071856;28;20542;-76
2020/12/31 02:09:43;;;;;;;19.17;18.05;;;3.20;91.20;;;;;;5073532;28;20207;-76
2020/12/31 02:12:09;;;;;;;19.10;18.00;;;3.30;91.80;;;;;;5075552;28;20226;-76
2020/12/31 02:14:36;;;;;;;20.50;18.98;;;3.20;92.30;;;;;;5075904;28;20192;-77
2020/12/31 02:17:02;;;;;;;19.75;18.55;;;3.20;90.80;;;;;;5074972;28;20211;-77
2020/12/31 02:19:29;;;;;;;21.60;20.30;;;3.20;90.10;;;;;;5075539;28;20685;-77
2020/12/31 02:21:56;;;;;;;21.05;19.77;;;3.20;89.50;;;;;;5075042;28;20562;-77
2020/12/31 02:24:22;;;;;;;21.10;19.65;;;3.20;89.00;;;;;;5075368;28;20204;-77
2020/12/31 02:26:50;;;;;;;20.50;19.30;;;3.20;88.40;;;;;;5074834;28;20230;-77
2020/12/31 02:29:18;;;;;;;1889.65;303.77;;;3.20;89.00;;;;;;5075059;28;20680;-77
2020/12/31 02:31:46;;;;;;;19.70;18.45;;;3.10;89.30;;;;;;5074844;28;20606;-77
2020/12/31 02:34:13;;;;;;;19.92;18.55;;;3.00;93.20;;;;;;5074806;28;20192;-77
2020/12/31 02:36:40;;;;;;;19.30;18.15;;;3.00;92.30;;;;;;5074799;28;20216;-77
2020/12/31 02:39:09;;;;;;;19.60;18.48;;;3.00;91.10;;;;;;5074733;28;20338;-77
2020/12/31 02:41:36;;;;;;;20.40;19.00;;;2.90;90.80;;;;;;5074851;28;20229;-77
2020/12/31 02:44:03;;;;;;;20.27;18.92;;;2.80;90.50;;;;;;5074408;28;20199;-77
2020/12/31 02:46:29;;;;;;;20.40;19.20;;;2.70;90.50;;;;;;5074504;28;20239;-77
2020/12/31 02:48:56;;;;;;;19.95;18.73;;;2.60;90.40;;;;;;5074681;28;20220;-77
2020/12/31 02:51:22;;;;;;;20.90;19.63;;;2.70;90.60;;;;;;5074291;28;20211;-77
2020/12/31 02:53:49;;;;;;;20.88;19.58;;;2.70;90.60;;;;;;5074200;28;20194;-77
2020/12/31 02:56:17;;;;;;;20.73;19.42;;;2.70;90.40;;;;;;5074236;28;20247;-77
2020/12/31 02:58:44;;;;;;;20.38;19.02;;;2.70;90.40;;;;;;5074403;28;20742;-77
2020/12/31 03:01:11;;;;;;;20.95;19.65;;;2.60;90.60;;;;;;5074393;28;20196;-77
2020/12/31 03:03:38;;;;;;;21.90;20.40;;;2.50;90.90;;;;;;5074366;28;20192;-77
2020/12/31 03:06:05;;;;;;;20.80;19.50;;;2.50;91.30;;;;;;5073886;28;20218;-77
2020/12/31 03:08:31;;;;;;;21.13;19.38;;;2.40;91.50;;;;;;5074467;28;20198;-77
2020/12/31 03:10:57;;;;;;;21.00;19.60;;;2.40;91.60;;;;;;5074628;28;20627;-77
2020/12/31 03:13:26;;;;;;;21.05;19.75;;;2.30;92.00;;;;;;5074298;28;20203;-77
2020/12/31 03:15:52;;;;;;;21.48;20.00;;;2.20;92.70;;;;;;5074279;28;20222;-77
2020/12/31 03:18:19;;;;;;;21.60;20.20;;;2.10;93.00;;;;;;5074257;28;20215;-77
2020/12/31 03:20:45;;;;;;;21.38;20.05;;;2.00;93.10;;;;;;5073656;28;20292;-77
2020/12/31 03:23:12;;;;;;;21.67;20.38;;;2.10;93.10;;;;;;5074509;28;20192;-77
2020/12/31 03:25:39;;;;;;;22.52;20.67;;;2.10;92.90;;;;;;5074141;28;20231;-77
2020/12/31 03:28:06;;;;;;;21.63;20.10;;;2.00;93.00;;;;;;5074224;28;20668;-77
2020/12/31 03:30:34;;;;;;;21.35;19.85;;;2.00;93.10;;;;;;5073504;28;20295;-77
2020/12/31 03:33:00;;;;;;;22.27;20.88;;;1.90;93.40;;;;;;5074003;28;20685;-77
2020/12/31 03:35:27;;;;;;;22.15;20.65;;;1.80;93.60;;;;;;5073721;28;20200;-77
2020/12/31 03:37:54;;;;;;;21.15;19.95;;;1.80;93.60;;;;;;5073888;28;20268;-76
2020/12/31 03:40:21;;;;;;;21.40;20.20;;;1.70;93.50;;;;;;5073498;28;20213;-77
2020/12/31 03:42:47;;;;;;;21.50;20.08;;;1.80;93.20;;;;;;5073535;28;20188;-77
2020/12/31 03:45:14;;;;;;;136.65;30.15;;;1.70;93.00;;;;;;5072925;28;20196;-76
2020/12/31 03:47:42;;;;;;;20.65;19.42;;;1.70;93.70;;;;;;5073544;28;20259;-77
2020/12/31 03:50:08;;;;;;;22.15;20.65;;;1.70;93.50;;;;;;5073166;28;20242;-77
2020/12/31 03:52:35;;;;;;;20.90;19.63;;;1.70;93.50;;;;;;5073481;28;20206;-77
2020/12/31 03:55:01;;;;;;;22.83;21.45;;;1.70;93.40;;;;;;5073250;28;20195;-77
2020/12/31 03:57:27;;;;;;;21.00;19.70;;;1.60;93.60;;;;;;5073278;28;20329;-77
2020/12/31 03:59:54;;;;;;;22.52;21.13;;;1.60;93.70;;;;;;5073216;28;20236;-77
2020/12/31 04:02:20;;;;;;;22.75;21.35;;;1.60;93.60;;;;;;5072786;28;20188;-76
2020/12/31 04:04:47;;;;;;;22.35;20.67;;;1.60;93.30;;;;;;5073269;28;20206;-77
2020/12/31 04:07:14;;;;;;;63.33;24.88;;;1.60;93.30;;;;;;5073121;28;20212;-77
2020/12/31 04:09:40;;;;;;;21.40;19.95;;;1.60;93.40;;;;;;5072864;28;20200;-78
2020/12/31 04:12:06;;;;;;;21.80;20.27;;;1.50;95.10;;;;;;5073383;28;20199;-76
2020/12/31 04:14:32;;;;;;;21.38;20.05;;;1.50;94.40;;;;;;5072889;28;20658;-77
2020/12/31 04:16:59;;;;;;;21.83;20.23;;;1.50;94.10;;;;;;5072924;28;20218;-77
2020/12/31 04:19:26;;;;;;;22.23;20.48;;;1.40;94.00;;;;;;5072771;28;20256;-77
2020/12/31 04:21:54;;;;;;;22.00;20.70;;;1.40;94.00;;;;;;5072219;28;20196;-77
2020/12/31 04:24:20;;;;;;;22.27;20.77;;;1.30;94.10;;;;;;5072783;28;20218;-77
2020/12/31 04:26:50;;;;;;;22.08;20.58;;;1.30;94.10;;;;;;5072247;28;20216;-77
2020/12/31 04:29:17;;;;;;;22.13;20.63;;;1.30;93.90;;;;;;5072591;28;20196;-77
2020/12/31 04:31:43;;;;;;;22.25;20.88;;;1.20;94.20;;;;;;5071784;28;20203;-78
2020/12/31 04:34:10;;;;;;;21.42;20.02;;;1.20;94.80;;;;;;5072818;28;20212;-77
2020/12/31 04:36:36;;;;;;;21.45;19.90;;;1.20;94.60;;;;;;5072348;28;20216;-76
2020/12/31 04:39:03;;;;;;;21.88;20.50;;;1.20;94.30;;;;;;5072608;28;20225;-77
2020/12/31 04:41:30;;;;;;;21.10;19.80;;;1.20;94.10;;;;;;5072779;28;20202;-77
2020/12/31 04:43:57;;;;;;;21.08;19.67;;;1.10;94.10;;;;;;5072510;28;20252;-77
2020/12/31 04:46:23;;;;;;;23.02;21.60;;;1.20;94.50;;;;;;5072083;28;20564;-76
2020/12/31 04:48:57;;;;;;;41.90;24.83;;;1.20;94.50;;;;;;5072788;28;20205;-77
2020/12/31 04:51:25;;;;;;;22.40;21.00;;;1.20;95.10;;;;;;5072487;28;20701;-77
2020/12/31 04:53:55;;;;;;;21.05;19.75;;;1.10;97.40;;;;;;5072681;28;20208;-77
2020/12/31 04:56:25;;;;;;;22.40;20.90;;;1.10;96.60;;;;;;5072044;28;20223;-77
2020/12/31 04:58:53;;;;;;;21.05;19.75;;;1.00;96.00;;;;;;5072507;28;20624;-77
2020/12/31 05:01:20;;;;;;;22.33;20.42;;;1.00;95.60;;;;;;5072417;28;20195;-77
2020/12/31 05:03:46;;;;;;;933.72;145.35;;;1.00;95.50;;;;;;5072157;28;20196;-76
2020/12/31 05:06:16;;;;;;;21.15;19.58;;;1.00;95.60;;;;;;5072701;28;20267;-77
2020/12/31 05:08:44;;;;;;;20.13;18.63;;;1.00;96.80;;;;;;5072923;28;20198;-76
2020/12/31 05:11:11;;;;;;;20.20;19.00;;;1.00;96.50;;;;;;5072595;28;20725;-77
2020/12/31 05:13:50;;;;;;;19.90;18.35;;;1.10;95.90;;;;;;5072827;28;20202;-76
2020/12/31 05:16:27;;;;;;;1196.00;182.10;;;1.20;95.00;;;;;;5072448;28;20228;-77
2020/12/31 05:18:53;;;;;;;19.13;17.65;;;1.20;94.60;;;;;;5072082;28;20217;-77
2020/12/31 05:21:20;;;;;;;19.75;18.55;;;1.20;96.30;;;;;;5072297;28;20190;-76
2020/12/31 05:23:46;;;;;;;19.77;18.27;;;1.20;95.10;;;;;;5072296;28;20205;-76
2020/12/31 05:26:29;;;;;;;20.30;18.90;;;1.30;94.40;;;;;;5072168;28;20217;-77
2020/12/31 05:28:56;;;;;;;19.35;18.10;;;1.30;93.30;;;;;;5072168;28;20191;-77
2020/12/31 05:31:22;;;;;;;20.58;18.90;;;1.30;92.50;;;;;;5071958;28;20263;-77
2020/12/31 05:33:49;;;;;;;19.27;18.05;;;1.30;92.20;;;;;;5072075;28;20191;-77
2020/12/31 05:36:18;;;;;;;19.50;18.25;;;1.20;91.60;;;;;;5071722;28;20221;-77
2020/12/31 05:39:01;;;;;;;20.40;19.10;;;1.20;91.50;;;;;;5072070;28;20227;-77
2020/12/31 05:41:29;;;;;;;21.52;19.42;;;1.30;90.90;;;;;;5072322;28;20202;-77
2020/12/31 05:43:58;;;;;;;19.63;18.33;;;1.20;90.80;;;;;;5074963;28;20191;-77
2020/12/31 05:46:25;;;;;;;20.08;18.77;;;1.20;91.60;;;;;;5075281;28;20224;-77
2020/12/31 05:48:59;;;;;;;21.30;20.00;;;1.20;91.70;;;;;;5075696;28;20247;-77
2020/12/31 05:51:27;;;;;;;19.85;18.65;;;1.30;91.10;;;;;;5075479;28;20203;-77
2020/12/31 05:54:04;;;;;;;19.50;18.27;;;1.40;90.40;;;;;;5075692;28;20190;-77
2020/12/31 05:56:32;;;;;;;20.45;19.23;;;1.30;90.00;;;;;;5075270;28;20695;-76
2020/12/31 05:59:06;;;;;;;19.83;18.58;;;1.20;90.30;;;;;;5075618;28;20217;-77
2020/12/31 06:01:36;;;;;;;19.38;18.27;;;1.20;90.30;;;;;;5075663;28;20198;-76
2020/12/31 06:04:18;;;;;;;20.52;19.38;;;1.30;90.00;;;;;;5075251;28;20601;-77
2020/12/31 06:06:49;;;;;;;20.63;19.42;;;1.30;89.50;;;;;;5075563;28;20225;-77
2020/12/31 06:09:26;;;;;;;20.80;19.50;;;1.20;89.40;;;;;;5075143;28;20191;-77
2020/12/31 06:11:58;;;;;;;21.17;19.98;;;1.10;89.70;;;;;;5075357;28;20201;-77
2020/12/31 06:14:28;;;;;;;20.77;19.67;;;1.10;89.90;;;;;;5055375;28;20571;-77
2020/12/31 06:16:58;;;;;;;142.60;29.83;;;1.10;90.10;;;;;;5055233;28;20260;-77
2020/12/31 06:19:29;;;;;;;277.17;45.17;;;1.10;90.50;;;;;;5072637;28;20213;-77
2020/12/31 06:22:04;;;;;;;20.65;18.98;;;1.00;91.60;;;;;;5075078;28;20202;-77
2020/12/31 06:24:35;;;;;;;44.15;22.10;;;1.00;92.00;;;;;;5055524;28;20209;-77
2020/12/31 06:27:07;;;;;;;21.48;18.63;;;1.10;93.60;;;;;;5055096;28;20222;-77
2020/12/31 06:29:42;;;;;;;157.93;36.58;;;1.10;93.50;;;;;;5055136;28;20256;-77
2020/12/31 06:32:18;;;;;;;406.65;75.32;;;1.20;92.60;;;;;;5054985;28;20676;-77
2020/12/31 06:34:45;;;;;;;20.00;18.80;;;1.20;94.50;;;;;;5055179;28;20213;-77
2020/12/31 06:37:14;;;;;;;20.30;19.10;;;1.30;93.10;;;;;;5054761;28;20721;-77
2020/12/31 06:39:41;;;;;;;21.33;20.08;;;1.40;90.80;;;;;;5054913;28;20194;-77
2020/12/31 06:42:07;;;;;;;19.25;18.15;;;1.30;89.90;;;;;;5074530;28;20202;-77
2020/12/31 06:44:35;;;;;;;19.38;18.38;;;1.30;89.90;;;;;;5074394;28;20251;-77
2020/12/31 06:47:01;;;;;;;22.67;20.42;;;1.30;89.80;;;;;;5074333;28;20719;-77
2020/12/31 06:49:58;;;;;;;1087.60;162.43;;;1.30;89.60;;;;;;5074498;28;20240;-78
2020/12/31 06:52:24;;;;;;;20.40;19.20;;;1.30;91.60;;;;;;5032626;28;20196;-77
2020/12/31 06:54:51;;;;;;;19.70;18.60;;;1.30;90.30;;;;;;5048467;28;20214;-77
2020/12/31 06:57:36;;;;;;;19.52;18.42;;;1.30;90.10;;;;;;5054334;28;20217;-76
2020/12/31 07:00:05;;;;;;;125.43;30.38;;;1.30;89.80;;;;;;5054877;28;20205;-77
2020/12/31 07:02:43;;;;;;;22.15;20.85;;;1.40;89.20;;;;;;5054379;28;20196;-77
2020/12/31 07:05:20;;;;;;;21.33;20.13;;;1.50;89.30;;;;;;5056796;28;20215;-76
2020/12/31 07:07:46;;;;;;;19.38;18.27;;;1.40;88.60;;;;;;5073802;28;20202;-76
2020/12/31 07:10:12;;;;;;;20.15;18.92;;;1.50;88.30;;;;;;5074118;28;20193;-76
2020/12/31 07:12:41;;;;;;;20.00;18.75;;;1.50;88.20;;;;;;5074352;28;20675;-77
2020/12/31 07:15:09;;;;;;;22.35;20.92;;;1.50;88.40;;;;;;5073851;28;20305;-77
2020/12/31 07:17:37;;;;;;;21.35;20.15;;;1.50;88.10;;;;;;5073952;28;20302;-77
2020/12/31 07:20:04;;;;;;;21.73;20.42;;;1.50;88.50;;;;;;5074043;28;20200;-76
2020/12/31 07:22:31;;;;;;;20.08;19.05;;;1.50;88.00;;;;;;5074061;28;20195;-77
2020/12/31 07:25:01;;;;;;;21.40;20.08;;;1.60;87.40;;;;;;5074069;28;20202;-76
2020/12/31 07:27:31;;;;;;;22.55;21.05;;;1.70;87.00;;;;;;5073680;28;20216;-77
2020/12/31 07:30:22;;;;;;;21.75;20.50;;;1.70;86.80;;;;;;5073915;28;20200;-77
2020/12/31 07:32:53;;;;;;;23.85;22.45;;;1.70;86.60;;;;;;5073866;28;20207;-76
2020/12/31 07:35:22;;;;;;;22.80;21.40;;;1.70;87.00;;;;;;5073525;28;20196;-76
2020/12/31 07:37:51;;;;;;;23.00;21.58;;;1.80;86.60;;;;;;5073540;28;20226;-76
2020/12/31 07:40:30;;;;;;;23.25;21.58;;;1.90;86.70;;;;;;5073793;28;20248;-76
2020/12/31 07:42:57;;;;;;;23.52;22.02;;;1.90;86.30;;;;;;5073556;28;20534;-76
2020/12/31 07:45:24;;;;;;;23.60;22.10;;;1.90;86.00;;;;;;5072750;28;20249;-76
2020/12/31 07:47:51;;;;;;;22.35;21.05;;;2.00;85.80;;;;;;5073290;28;20188;-77
2020/12/31 07:50:18;;;;;;;24.00;22.40;;;2.10;84.90;;;;;;5073049;28;20184;-76
2020/12/31 07:52:44;;;;;;;22.13;20.73;;;2.10;84.70;;;;;;5073141;28;20196;-76
2020/12/31 07:55:10;;;;;;;23.30;21.80;;;2.20;84.80;;;;;;5073334;28;20200;-76
2020/12/31 07:57:38;;;;;;;41.67;25.92;;;2.20;84.70;;;;;;5073076;28;20215;-76
2020/12/31 08:00:05;;;;;;;22.00;20.70;;;2.20;86.20;;;;;;5073255;28;20703;-76
2020/12/31 08:02:33;;;;;;;99.93;28.00;;;2.20;88.30;;;;;;5072609;28;20188;-76
2020/12/31 08:05:10;;;;;;;22.55;21.05;;;2.30;87.10;;;;;;5073577;28;20727;-77
2020/12/31 08:07:36;;;;;;;23.00;21.60;;;2.40;88.30;;;;;;5073230;28;20219;-77
2020/12/31 08:10:03;;;;;;;23.98;22.38;;;2.50;87.00;;;;;;5073148;28;20207;-77
2020/12/31 08:12:29;;;;;;;53.50;25.00;;;2.60;87.20;;;;;;5072663;28;20196;-77
2020/12/31 08:14:56;;;;;;;22.58;21.17;;;2.70;88.20;;;;;;5072865;28;20649;-77
2020/12/31 08:17:22;;;;;;;24.35;22.83;;;2.70;86.50;;;;;;5072911;28;20276;-77
2020/12/31 08:19:50;;;;;;;24.30;22.90;;;2.70;85.40;;;;;;5072804;28;20280;-77
2020/12/31 08:22:26;;;;;;;23.05;21.65;;;2.80;84.50;;;;;;5072580;28;20192;-77
2020/12/31 08:25:00;;;;;;;24.60;22.90;;;2.90;84.10;;;;;;5072908;28;20199;-77
2020/12/31 08:27:28;;;;;;;23.85;22.27;;;2.90;83.20;;;;;;5072705;28;20685;-77
2020/12/31 08:29:55;;;;;;;25.75;24.17;;;3.00;82.70;;;;;;5072646;28;20198;-76
2020/12/31 08:32:26;;;;;;;26.00;24.40;;;3.10;82.50;;;;;;5072936;28;20206;-77
2020/12/31 08:34:58;;;;;;;24.33;22.75;;;3.00;82.20;;;;;;5072845;28;20227;-76
2020/12/31 08:37:27;;;;;;;23.55;21.95;;;3.00;82.90;;;;;;5072476;28;20276;-77
2020/12/31 08:39:55;;;;;;;26.83;25.23;;;3.10;83.00;;;;;;5072425;28;20192;-77
2020/12/31 08:42:24;;;;;;;24.30;22.70;;;3.10;82.40;;;;;;5072703;28;20202;-77
2020/12/31 08:44:54;;;;;;;24.80;23.30;;;3.20;82.30;;;;;;5072492;28;20599;-77
2020/12/31 08:47:25;;;;;;;281.38;47.88;;;3.30;82.00;;;;;;5072510;28;20631;-77
2020/12/31 08:49:57;;;;;;;24.60;23.00;;;3.30;85.80;;;;;;5072123;28;20192;-77
2020/12/31 08:52:26;;;;;;;67.55;27.10;;;3.40;84.90;;;;;;5072579;28;20600;-77
2020/12/31 08:55:06;;;;;;;24.23;22.63;;;3.40;86.70;;;;;;5072664;28;20192;-76
2020/12/31 08:57:32;;;;;;;25.30;23.35;;;3.50;84.80;;;;;;5072341;28;20264;-77
2020/12/31 08:59:59;;;;;;;24.15;22.65;;;3.60;83.20;;;;;;5072371;28;20196;-76
2020/12/31 09:02:25;;;;;;;25.90;24.30;;;3.70;82.50;;;;;;5072250;28;20554;-77
2020/12/31 09:05:10;;;;;;;23.85;22.35;;;3.70;81.40;;;;;;5072519;28;20218;-77
2020/12/31 09:07:36;;;;;;;24.10;22.60;;;3.70;81.30;;;;;;5072271;28;20245;-77
2020/12/31 09:10:12;;;;;;;25.70;23.80;;;3.80;80.90;;;;;;5072129;28;20203;-76
2020/12/31 09:12:38;;;;;;;24.75;23.02;;;3.60;81.50;;;;;;5072509;28;20213;-77
2020/12/31 09:15:05;;;;;;;25.88;23.92;;;3.70;81.40;;;;;;5072264;28;20200;-77
2020/12/31 09:17:33;;;;;;;25.70;24.10;;;3.70;81.10;;;;;;5072927;28;20223;-77
2020/12/31 09:20:00;;;;;;;25.27;23.50;;;3.70;80.80;;;;;;5076526;28;20200;-77
2020/12/31 09:22:27;;;;;;;26.35;24.55;;;3.80;80.50;;;;;;5076032;28;20211;-77
2020/12/31 09:24:54;;;;;;;27.17;25.27;;;3.80;80.00;;;;;;5076134;28;20198;-76
2020/12/31 09:27:24;;;;;;;24.48;22.75;;;3.80;83.10;;;;;;5075488;28;20208;-76
2020/12/31 09:29:56;;;;;;;25.70;23.88;;;3.80;83.00;;;;;;5076242;28;20196;-77
2020/12/31 09:32:22;;;;;;;25.52;23.88;;;3.90;81.70;;;;;;5075942;28;20304;-77
2020/12/31 09:34:48;;;;;;;23.80;22.27;;;3.80;81.10;;;;;;5076328;28;20195;-77
2020/12/31 09:37:16;;;;;;;25.88;24.17;;;3.90;81.30;;;;;;5075895;28;20216;-77
2020/12/31 09:39:43;;;;;;;27.00;25.00;;;4.00;80.70;;;;;;5076072;28;20224;-77
2020/12/31 09:42:09;;;;;;;24.42;22.88;;;4.00;83.20;;;;;;5076095;28;20196;-77
2020/12/31 09:44:36;;;;;;;25.98;24.02;;;4.20;83.50;;;;;;5075593;28;20573;-77
2020/12/31 09:47:02;;;;;;;92.63;29.02;;;4.20;82.20;;;;;;5075914;28;20227;-77
2020/12/31 09:49:29;;;;;;;22.85;21.35;;;4.30;87.70;;;;;;5076001;28;20194;-77
2020/12/31 09:51:55;;;;;;;23.45;21.95;;;4.40;89.20;;;;;;5075973;28;20194;-77
2020/12/31 09:54:21;;;;;;;24.70;23.17;;;4.60;85.80;;;;;;5075899;28;20531;-77
2020/12/31 09:56:49;;;;;;;25.08;23.38;;;4.60;83.30;;;;;;5075766;28;20306;-77
2020/12/31 09:59:15;;;;;;;26.33;24.58;;;4.60;80.20;;;;;;5075780;28;20222;-77
2020/12/31 10:01:41;;;;;;;26.65;24.95;;;4.60;80.60;;;;;;5075868;28;20658;-77
2020/12/31 10:04:08;;;;;;;26.83;25.10;;;4.70;79.30;;;;;;5076259;28;20280;-77
2020/12/31 10:06:34;;;;;;;27.10;25.30;;;4.70;79.30;;;;;;5075420;28;20224;-77
2020/12/31 10:09:01;;;;;;;26.25;24.55;;;4.80;78.90;;;;;;5075745;28;20195;-77
2020/12/31 10:11:28;;;;;;;26.13;24.38;;;4.80;79.00;;;;;;5075474;28;20585;-77
2020/12/31 10:13:56;;;;;;;27.08;25.27;;;4.80;77.60;;;;;;5075197;28;20283;-77
2020/12/31 10:16:22;;;;;;;25.65;23.95;;;4.90;79.00;;;;;;5074904;28;20694;-77
2020/12/31 10:18:48;;;;;;;26.92;24.90;;;4.80;79.80;;;;;;5074834;28;20762;-77
2020/12/31 10:21:15;;;;;;;27.30;25.23;;;4.90;81.40;;;;;;5075299;28;20659;-77
2020/12/31 10:23:41;;;;;;;755.13;97.85;;;5.10;81.00;;;;;;5075124;28;20231;-77
2020/12/31 10:26:07;;;;;;;27.50;25.58;;;5.30;80.20;;;;;;5074833;28;20226;-77
2020/12/31 10:28:34;;;;;;;25.20;23.60;;;5.50;82.20;;;;;;5074132;28;20191;-77
2020/12/31 10:31:01;;;;;;;27.35;25.55;;;5.60;78.80;;;;;;5073919;28;20210;-77
2020/12/31 10:33:27;;;;;;;27.65;25.83;;;5.70;78.40;;;;;;5075151;28;20281;-77
2020/12/31 10:35:54;;;;;;;26.27;24.63;;;5.80;80.10;;;;;;5074311;28;20215;-77
2020/12/31 10:38:20;;;;;;;25.67;24.05;;;6.00;76.80;;;;;;5075117;28;20216;-77
2020/12/31 10:40:46;;;;;;;26.65;24.95;;;6.10;75.70;;;;;;5074950;28;20665;-77
2020/12/31 10:43:13;;;;;;;26.25;24.63;;;6.20;76.20;;;;;;5074580;28;20594;-77
2020/12/31 10:45:39;;;;;;;25.20;23.50;;;6.20;72.30;;;;;;5074218;28;20196;-77
2020/12/31 10:48:08;;;;;;;25.55;24.02;;;6.10;75.40;;;;;;5074831;28;20263;-77
2020/12/31 10:50:34;;;;;;;24.58;23.17;;;6.10;74.20;;;;;;5074387;28;20283;-77
2020/12/31 10:53:01;;;;;;;25.63;23.95;;;6.00;72.90;;;;;;5074635;28;20682;-77
2020/12/31 10:55:28;;;;;;;25.67;23.88;;;6.00;73.40;;;;;;5074408;28;20289;-77
2020/12/31 10:57:55;;;;;;;23.17;21.83;;;5.90;74.70;;;;;;5074480;28;20200;-77
2020/12/31 11:00:21;;;;;;;24.77;23.08;;;5.70;76.40;;;;;;5074314;28;20731;-77
2020/12/31 11:02:48;;;;;;;24.73;23.00;;;5.60;78.10;;;;;;5074145;28;20195;-77
2020/12/31 11:05:15;;;;;;;24.70;23.02;;;5.60;79.20;;;;;;5074378;28;20679;-77
2020/12/31 11:07:41;;;;;;;26.38;24.73;;;5.40;79.50;;;;;;5074145;28;20222;-77
2020/12/31 11:10:07;;;;;;;23.45;22.02;;;5.60;79.40;;;;;;5074172;28;20235;-77
2020/12/31 11:12:34;;;;;;;24.08;22.63;;;5.40;82.10;;;;;;5073981;28;20200;-77
2020/12/31 11:15:00;;;;;;;25.85;23.92;;;5.60;81.10;;;;;;5074302;28;20208;-77
2020/12/31 11:17:26;;;;;;;26.60;24.80;;;5.60;80.40;;;;;;5074286;28;20236;-77
2020/12/31 11:19:53;;;;;;;22.98;21.67;;;5.70;80.30;;;;;;5073995;28;20232;-77
2020/12/31 11:22:20;;;;;;;24.77;23.30;;;5.80;79.70;;;;;;5073797;28;20196;-77
2020/12/31 11:24:47;;;;;;;24.40;22.40;;;5.80;79.90;;;;;;5073861;28;20192;-77
2020/12/31 11:27:13;;;;;;;23.55;22.05;;;5.90;82.30;;;;;;5073663;28;20212;-77
2020/12/31 11:29:39;;;;;;;23.60;22.10;;;5.80;82.90;;;;;;5076521;28;20218;-77
2020/12/31 11:32:06;;;;;;;23.45;22.05;;;5.80;84.10;;;;;;5073921;28;20258;-77
2020/12/31 11:34:32;;;;;;;22.73;21.33;;;5.80;85.80;;;;;;5073730;28;20200;-77
2020/12/31 11:37:01;;;;;;;30.65;28.27;;;5.90;85.20;;;;;;5073437;28;20207;-77
2020/12/31 11:39:28;;;;;;;24.98;23.38;;;6.00;83.10;;;;;;5073159;28;20215;-76
2020/12/31 11:41:58;;;;;;;24.58;22.98;;;6.10;82.60;;;;;;5073909;28;20278;-77
2020/12/31 11:44:25;;;;;;;352.90;48.92;;;6.20;82.40;;;;;;5073467;28;20203;-77
2020/12/31 11:46:51;;;;;;;24.63;23.13;;;6.20;83.30;;;;;;5073293;28;20226;-77
2020/12/31 11:49:18;;;;;;;24.67;23.17;;;6.10;81.00;;;;;;5073733;28;20285;-77
2020/12/31 11:51:44;;;;;;;32.17;23.00;;;6.20;80.30;;;;;;5073156;28;20200;-77
2020/12/31 11:54:11;;;;;;;23.42;21.92;;;6.30;83.10;;;;;;5073483;28;20196;-77
2020/12/31 11:56:39;;;;;;;23.25;21.80;;;6.30;84.30;;;;;;5073113;28;20230;-77
2020/12/31 11:59:06;;;;;;;25.88;24.27;;;6.40;82.10;;;;;;5073374;28;20223;-77
2020/12/31 12:01:32;;;;;;;25.27;23.75;;;6.50;80.90;;;;;;5073566;28;20206;-77
2020/12/31 12:03:58;;;;;;;24.75;23.15;;;6.60;79.10;;;;;;5073535;28;20203;-77
2020/12/31 12:06:25;;;;;;;25.42;23.92;;;6.90;76.70;;;;;;5072999;28;20215;-77
2020/12/31 12:08:51;;;;;;;27.70;25.80;;;6.90;78.20;;;;;;5072962;28;20646;-77
2020/12/31 12:11:17;;;;;;;25.75;24.10;;;6.90;78.00;;;;;;5073347;28;20249;-77
2020/12/31 12:13:44;;;;;;;24.40;23.00;;;6.90;78.70;;;;;;5073111;28;20200;-77
2020/12/31 12:16:11;;;;;;;26.33;24.70;;;6.90;78.90;;;;;;5073155;28;20216;-77
2020/12/31 12:18:37;;;;;;;25.75;24.15;;;6.90;77.10;;;;;;5072424;28;20212;-77
2020/12/31 12:21:04;;;;;;;26.85;25.25;;;6.90;76.50;;;;;;5073080;28;20231;-77
2020/12/31 12:23:30;;;;;;;27.90;26.05;;;6.90;77.00;;;;;;5073003;28;20561;-77
2020/12/31 12:25:57;;;;;;;25.67;24.08;;;6.90;75.90;;;;;;5072797;28;20255;-77
2020/12/31 12:28:23;;;;;;;25.10;23.58;;;6.70;76.60;;;;;;5072563;28;20192;-77
2020/12/31 12:30:50;;;;;;;25.80;24.20;;;6.60;76.40;;;;;;5072837;28;20261;-77
2020/12/31 12:33:17;;;;;;;26.35;24.65;;;6.60;76.30;;;;;;5072970;28;20345;-77
2020/12/31 12:35:43;;;;;;;24.65;23.13;;;6.50;78.40;;;;;;5072603;28;20586;-77
2020/12/31 12:38:09;;;;;;;24.52;23.02;;;6.50;82.10;;;;;;5072452;28;20274;-76